Time;durP1;ratioP1;P1;durP2;ratioP2;P2;SDS_P1;SDS_P2;PMS_P1;PMS_P2;Temp;Humidity;BMP_temperature;BMP_pressure;BME280_temperature;BME280_humidity;BME280_pressure;Samples;Min_cycle;Max_cycle;Signal;HPM_P1;HPM_P2
2024/01/18 00:01:30;;;;;;;8.82;3.58;;;1.00;99.90;;;0.60;100.00;98598.88;5235940;28;20053;-47
2024/01/18 00:04:03;;;;;;;9.50;4.18;;;1.00;99.90;;;0.59;100.00;98599.69;5244658;28;20059;-48
2024/01/18 00:06:35;;;;;;;13.48;4.32;;;0.90;99.90;;;0.57;100.00;98611.53;5235078;28;20511;-48
2024/01/18 00:09:09;;;;;;;13.02;4.63;;;0.90;99.90;;;0.54;100.00;98608.88;5247771;28;20059;-47
2024/01/18 00:11:42;;;;;;;14.80;4.95;;;0.90;99.90;;;0.55;100.00;98605.50;5226180;28;20056;-49
2024/01/18 00:14:14;;;;;;;12.95;5.82;;;0.90;99.90;;;0.52;100.00;98603.69;5228288;28;20507;-47
2024/01/18 00:16:47;;;;;;;9.85;5.10;;;0.90;99.90;;;0.51;100.00;98616.44;5235298;28;20060;-48
2024/01/18 00:19:19;;;;;;;7.90;4.22;;;0.90;99.90;;;0.50;100.00;98627.50;5236571;28;20037;-46
2024/01/18 00:21:51;;;;;;;11.27;6.03;;;0.90;99.90;;;0.53;100.00;98630.19;5224890;28;20684;-47
2024/01/18 00:24:25;;;;;;;7.65;4.93;;;0.90;99.90;;;0.53;100.00;98643.03;5240334;28;20052;-48
2024/01/18 00:26:57;;;;;;;11.95;5.10;;;0.90;99.90;;;0.54;100.00;98655.03;5247773;28;20055;-47
2024/01/18 00:29:31;;;;;;;7.93;5.22;;;0.90;99.90;;;0.55;100.00;98664.44;5231709;28;20096;-47
2024/01/18 00:32:03;;;;;;;10.85;4.82;;;0.90;99.90;;;0.56;100.00;98671.31;5238964;28;20044;-47
2024/01/18 00:34:36;;;;;;;10.45;5.65;;;0.90;99.90;;;0.57;100.00;98679.88;5243868;28;20045;-48
2024/01/18 00:37:08;;;;;;;8.00;4.65;;;1.00;99.90;;;0.58;100.00;98685.06;5231563;28;20084;-49
2024/01/18 00:39:43;;;;;;;14.60;5.97;;;0.90;99.90;;;0.57;100.00;98685.88;5235975;28;20036;-47
2024/01/18 00:42:16;;;;;;;14.45;6.22;;;0.90;99.90;;;0.59;100.00;98679.16;5225795;28;20054;-49
2024/01/18 00:44:48;;;;;;;9.40;4.78;;;0.90;99.90;;;0.58;100.00;98667.13;5239896;28;20056;-48
2024/01/18 00:47:20;;;;;;;10.40;4.95;;;1.00;99.90;;;0.57;100.00;98665.38;5239908;28;20056;-49
2024/01/18 00:49:53;;;;;;;7.68;4.28;;;0.90;99.90;;;0.57;100.00;98672.19;5221838;28;20041;-49
2024/01/18 00:52:25;;;;;;;9.77;5.47;;;0.90;99.90;;;0.57;100.00;98685.03;5235988;28;20053;-47
2024/01/18 00:54:59;;;;;;;8.48;4.35;;;0.90;99.90;;;0.54;100.00;98698.59;5244804;28;20052;-47
2024/01/18 00:57:33;;;;;;;11.10;4.80;;;0.90;99.90;;;0.55;100.00;98708.03;5225490;28;20041;-48
2024/01/18 01:00:07;;;;;;;11.00;4.68;;;0.90;99.90;;;0.56;100.00;98709.78;5240003;28;20049;-47
2024/01/18 01:02:39;;;;;;;10.43;5.53;;;1.00;99.90;;;0.57;100.00;98690.16;5242650;28;20049;-47
2024/01/18 01:05:12;;;;;;;12.00;4.38;;;1.00;99.90;;;0.57;100.00;98691.00;5240976;28;20045;-46
2024/01/18 01:07:45;;;;;;;9.50;4.82;;;0.90;99.90;;;0.59;100.00;98701.31;5234911;28;20048;-47
2024/01/18 01:10:18;;;;;;;15.60;5.95;;;0.90;99.90;;;0.53;100.00;98702.84;5233977;28;21317;-48
2024/01/18 01:12:51;;;;;;;11.25;5.65;;;0.90;99.90;;;0.52;100.00;98692.50;5240142;28;20457;-48
2024/01/18 01:15:23;;;;;;;11.13;4.60;;;0.90;99.90;;;0.52;100.00;98698.53;5237875;28;20048;-47
2024/01/18 01:17:55;;;;;;;13.40;5.53;;;0.90;99.90;;;0.54;100.00;98708.84;5230989;28;20060;-47
2024/01/18 01:20:28;;;;;;;6.85;3.58;;;0.90;99.90;;;0.55;100.00;98700.34;5230085;28;20440;-48
2024/01/18 01:23:00;;;;;;;9.50;4.85;;;0.90;99.90;;;0.55;100.00;98702.91;5234858;28;20049;-47
2024/01/18 01:25:34;;;;;;;12.45;6.55;;;0.90;99.90;;;0.56;100.00;98714.03;5235964;28;20055;-47
2024/01/18 01:28:07;;;;;;;16.70;5.30;;;0.90;99.90;;;0.54;100.00;98719.09;5236002;28;20053;-47
2024/01/18 01:30:39;;;;;;;10.30;5.55;;;0.90;99.90;;;0.54;100.00;98719.09;5238927;28;20056;-46
2024/01/18 01:33:12;;;;;;;14.55;6.22;;;0.90;99.90;;;0.51;100.00;98722.41;5232329;28;20040;-47
2024/01/18 01:35:44;;;;;;;9.57;5.60;;;0.90;99.90;;;0.49;100.00;98718.03;5229977;28;20659;-47
2024/01/18 01:38:17;;;;;;;8.50;4.38;;;0.80;99.90;;;0.49;100.00;98716.34;5227637;28;20055;-48
2024/01/18 01:40:50;;;;;;;7.43;4.45;;;0.80;99.90;;;0.51;100.00;98719.84;5243640;28;20044;-47
2024/01/18 01:43:23;;;;;;;15.55;5.72;;;0.90;99.90;;;0.51;100.00;98731.78;5231253;28;20526;-47
2024/01/18 01:45:58;;;;;;;13.50;4.47;;;0.90;99.90;;;0.49;100.00;98726.59;5241457;28;20508;-47
2024/01/18 01:48:31;;;;;;;;;;;0.80;99.90;;;0.50;100.00;98730.03;5231294;28;20507;-47
2024/01/18 01:51:03;;;;;;;17.55;5.93;;;0.90;99.90;;;0.51;100.00;98736.91;5226522;28;19920;-49
2024/01/18 01:53:36;;;;;;;14.98;7.60;;;0.80;99.90;;;0.51;100.00;98734.34;5243873;28;20060;-47
2024/01/18 01:56:09;;;;;;;9.68;5.72;;;0.80;99.90;;;0.49;100.00;98733.41;5230698;28;20060;-47
2024/01/18 01:58:42;;;;;;;8.15;4.05;;;0.80;99.90;;;0.49;100.00;98744.53;5242330;28;20053;-47
2024/01/18 02:01:14;;;;;;;17.67;5.90;;;0.90;99.90;;;0.49;100.00;98748.78;5221114;28;20072;-47
2024/01/18 02:03:47;;;;;;;10.27;4.38;;;0.90;99.90;;;0.49;100.00;98759.06;5226311;28;20064;-47
2024/01/18 02:06:19;;;;;;;9.40;4.40;;;0.90;99.90;;;0.49;100.00;98761.63;5234793;28;20060;-46
2024/01/18 02:08:52;;;;;;;9.98;5.63;;;0.90;99.90;;;0.49;100.00;98759.06;5249105;28;20056;-47
2024/01/18 02:11:26;;;;;;;12.20;5.13;;;0.80;99.90;;;0.49;100.00;98762.50;5239099;28;20059;-46
2024/01/18 02:13:58;;;;;;;11.52;4.55;;;0.90;99.90;;;0.49;100.00;98761.63;5243738;28;20099;-48
2024/01/18 02:16:32;;;;;;;12.48;5.10;;;0.80;99.90;;;0.50;100.00;98763.34;5237108;28;20072;-48
2024/01/18 02:19:04;;;;;;;8.95;4.93;;;0.80;99.90;;;0.47;100.00;98765.81;5232056;28;20056;-47
2024/01/18 02:21:37;;;;;;;10.80;5.15;;;0.90;99.90;;;0.47;100.00;98760.69;5243446;28;20522;-47
2024/01/18 02:24:18;;;;;;;10.07;5.25;;;0.80;99.90;;;0.47;100.00;98760.69;5249000;28;20068;-47
2024/01/18 02:26:51;;;;;;;8.25;4.88;;;0.80;99.90;;;0.47;100.00;98758.13;5238572;28;20527;-47
2024/01/18 02:29:24;;;;;;;16.05;4.95;;;0.80;99.90;;;0.48;100.00;98762.44;5234745;28;20048;-48
2024/01/18 02:31:56;;;;;;;13.18;6.07;;;0.90;99.90;;;0.47;100.00;98760.69;5238504;28;20041;-47
2024/01/18 02:34:29;;;;;;;12.20;5.65;;;0.80;99.90;;;0.48;100.00;98762.44;5240415;28;20043;-47
2024/01/18 02:37:01;;;;;;;8.38;4.85;;;0.80;99.90;;;0.50;100.00;98760.78;5243060;28;20049;-49
2024/01/18 02:39:34;;;;;;;11.98;5.85;;;0.80;99.90;;;0.49;100.00;98751.34;5237629;28;20499;-47
2024/01/18 02:42:08;;;;;;;8.90;4.05;;;0.90;99.90;;;0.49;100.00;98761.63;5235972;28;20053;-47
2024/01/18 02:44:41;;;;;;;9.68;4.25;;;0.80;99.90;;;0.49;100.00;98759.06;5236393;28;20056;-47
2024/01/18 02:47:14;;;;;;;9.90;5.00;;;0.90;99.90;;;0.47;100.00;98763.25;5246553;28;20049;-47
2024/01/18 02:49:46;;;;;;;7.93;4.45;;;0.90;99.90;;;0.46;100.00;98761.50;5248616;28;20033;-47
2024/01/18 02:52:19;;;;;;;8.52;4.47;;;0.90;99.90;;;0.42;100.00;98762.16;5236839;28;20060;-47
2024/01/18 02:54:51;;;;;;;9.98;5.45;;;0.80;99.90;;;0.40;100.00;98763.81;5237155;28;20047;-49
2024/01/18 02:57:25;;;;;;;11.13;4.70;;;0.80;99.90;;;0.39;100.00;98767.16;5234190;28;20047;-47
2024/01/18 02:59:57;;;;;;;10.35;4.57;;;0.80;99.90;;;0.37;100.00;98768.78;5234659;28;20076;-47
2024/01/18 03:02:30;;;;;;;8.07;5.05;;;0.80;99.90;;;0.36;100.00;98767.03;5228486;28;20061;-48
2024/01/18 03:05:02;;;;;;;8.95;4.97;;;0.80;99.90;;;0.37;100.00;98768.78;5228143;28;20048;-46
2024/01/18 03:07:34;;;;;;;9.30;4.90;;;0.80;99.90;;;0.37;100.00;98763.66;5230536;28;20106;-47
2024/01/18 03:10:08;;;;;;;7.05;3.95;;;0.80;99.90;;;0.38;100.00;98771.41;5246306;28;20496;-47
2024/01/18 03:12:42;;;;;;;13.02;5.18;;;0.80;99.90;;;0.36;100.00;98769.59;5234839;28;20048;-47
2024/01/18 03:15:14;;;;;;;11.68;4.93;;;0.80;99.90;;;0.36;100.00;98775.59;5229640;28;20508;-48
2024/01/18 03:17:47;;;;;;;9.55;5.40;;;0.70;99.90;;;0.36;100.00;98767.91;5241995;28;20076;-47
2024/01/18 03:20:19;;;;;;;8.82;3.97;;;0.80;99.90;;;0.37;100.00;98776.47;5237965;28;20059;-46
2024/01/18 03:22:51;;;;;;;7.75;4.82;;;0.80;99.90;;;0.35;100.00;98784.09;5238909;28;20119;-47
2024/01/18 03:25:24;;;;;;;13.85;5.40;;;0.70;99.90;;;0.36;100.00;98787.53;5235460;28;20055;-47
2024/01/18 03:27:59;;;;;;;11.48;5.25;;;0.80;99.90;;;0.35;100.00;98781.53;5229192;28;20477;-47
2024/01/18 03:30:31;;;;;;;5.65;3.78;;;0.70;99.90;;;0.36;100.00;98777.28;5242488;28;20041;-47
2024/01/18 03:33:04;;;;;;;6.22;4.47;;;0.80;99.90;;;0.29;100.00;98791.53;5237933;28;20048;-47
2024/01/18 03:35:36;;;;;;;9.70;4.05;;;0.70;99.90;;;0.21;100.00;98795.44;5243144;28;20536;-46
2024/01/18 03:38:09;;;;;;;7.00;4.53;;;0.70;99.90;;;0.18;100.00;98797.84;5236202;28;20053;-47
2024/01/18 03:40:41;;;;;;;7.10;4.45;;;0.60;99.90;;;0.13;100.00;98799.34;5233683;28;20044;-49
2024/01/18 03:43:15;;;;;;;12.55;3.78;;;0.60;99.90;;;0.09;100.00;98800.03;5250460;28;20409;-47
2024/01/18 03:45:47;;;;;;;10.48;4.47;;;0.50;99.90;;;0.06;100.00;98793.06;5235620;28;20053;-47
2024/01/18 03:48:20;;;;;;;5.50;2.40;;;0.50;99.90;;;0.03;100.00;98787.81;5226719;28;20057;-47
2024/01/18 03:50:52;;;;;;;8.55;3.83;;;0.50;99.90;;;0.04;100.00;98786.13;5237219;28;20053;-47
2024/01/18 03:53:25;;;;;;;7.28;3.85;;;0.50;99.90;;;0.02;100.00;98783.50;5252303;28;20041;-47
2024/01/18 03:56:00;;;;;;;4.72;3.35;;;0.40;99.90;;;0.02;100.00;98782.63;5236855;28;20041;-47
2024/01/18 03:58:34;;;;;;;6.75;3.58;;;0.40;99.90;;;0.02;100.00;98787.75;5236778;28;20060;-47
2024/01/18 04:01:06;;;;;;;5.85;3.55;;;0.40;99.90;;;0.02;100.00;98790.31;5231982;28;20049;-47
2024/01/18 04:03:39;;;;;;;7.88;4.38;;;0.40;99.90;;;0.02;100.00;98790.31;5230065;28;20049;-47
2024/01/18 04:06:13;;;;;;;16.40;4.20;;;0.40;99.90;;;0.01;100.00;98786.88;5229005;28;20396;-47
2024/01/18 04:08:46;;;;;;;8.23;4.47;;;0.40;99.90;;;0.01;100.00;98789.44;5232720;28;20048;-48
2024/01/18 04:11:18;;;;;;;13.15;5.07;;;0.40;99.90;;;-0.01;100.00;98789.34;5239358;28;20210;-47
2024/01/18 04:13:52;;;;;;;13.25;6.95;;;0.40;99.90;;;0.00;100.00;98790.25;5236375;28;20048;-47
2024/01/18 04:16:24;;;;;;;8.07;3.83;;;0.40;99.90;;;-0.01;100.00;98806.41;5235847;28;20060;-47
2024/01/18 04:18:57;;;;;;;11.00;6.80;;;0.40;99.90;;;-0.03;100.00;98808.03;5238470;28;20048;-46
2024/01/18 04:21:29;;;;;;;9.70;4.28;;;0.40;99.90;;;-0.05;100.00;98812.22;5233489;28;20434;-47
2024/01/18 04:24:02;;;;;;;9.40;5.47;;;0.40;99.90;;;-0.10;100.00;98814.56;5231408;28;20053;-46
2024/01/18 04:26:34;;;;;;;10.65;4.55;;;0.30;99.90;;;-0.11;100.00;98822.19;5242835;28;20045;-46
2024/01/18 04:29:09;;;;;;;10.75;4.68;;;0.30;99.90;;;-0.08;100.00;98819.75;5245292;28;20060;-47
2024/01/18 04:31:41;;;;;;;9.23;4.28;;;0.30;99.90;;;-0.08;100.00;98824.88;5237193;28;20125;-47
2024/01/18 04:34:17;;;;;;;9.38;4.70;;;0.30;99.90;;;-0.08;100.00;98830.00;5249096;28;20554;-47
2024/01/18 04:36:49;;;;;;;8.68;4.47;;;0.30;99.90;;;-0.05;100.00;98827.59;5230978;28;20055;-47
2024/01/18 04:39:21;;;;;;;10.82;4.00;;;0.40;99.90;;;-0.08;100.00;98828.31;5238714;28;20040;-48
2024/01/18 04:41:54;;;;;;;6.88;3.22;;;0.40;99.90;;;-0.08;100.00;98837.69;5226162;28;20048;-49
2024/01/18 04:44:27;;;;;;;9.07;4.43;;;0.30;99.90;;;-0.07;100.00;98840.31;5230128;28;20037;-48
2024/01/18 04:47:00;;;;;;;5.22;2.92;;;0.40;99.90;;;-0.08;100.00;98838.56;5229491;28;20053;-48
2024/01/18 04:49:32;;;;;;;5.18;3.38;;;0.40;99.90;;;-0.10;100.00;98847.00;5224758;28;20040;-47
2024/01/18 04:52:05;;;;;;;8.48;3.58;;;0.40;99.90;;;-0.09;100.00;98848.75;5242330;28;20047;-47
2024/01/18 04:54:37;;;;;;;8.52;4.20;;;0.40;99.90;;;-0.07;100.00;98865.91;5238321;28;20520;-46
2024/01/18 04:57:10;;;;;;;10.43;3.92;;;0.40;99.90;;;-0.09;100.00;98858.97;5242479;28;20040;-47
2024/01/18 04:59:44;;;;;;;5.93;3.40;;;0.40;99.90;;;-0.10;100.00;98862.34;5234166;28;20341;-49
2024/01/18 05:02:20;;;;;;;10.10;5.50;;;0.40;99.90;;;-0.13;100.00;98864.75;5242155;28;20549;-47
2024/01/18 05:04:52;;;;;;;11.65;4.43;;;0.40;99.90;;;-0.16;100.00;98872.31;5228788;28;20325;-47
2024/01/18 05:07:24;;;;;;;5.35;4.32;;;0.30;99.90;;;-0.17;100.00;98875.69;5239189;28;20053;-47
2024/01/18 05:09:58;;;;;;;9.48;4.28;;;0.30;99.90;;;-0.18;100.00;98872.25;5233153;28;20045;-47
2024/01/18 05:12:30;;;;;;;9.65;4.40;;;0.30;99.90;;;-0.18;100.00;98873.94;5235790;28;20068;-49
2024/01/18 05:15:07;;;;;;;14.55;6.95;;;0.30;99.90;;;-0.15;100.00;98879.19;5229587;28;20051;-49
2024/01/18 05:17:41;;;;;;;9.23;4.15;;;0.30;99.90;;;-0.17;100.00;98874.00;5244445;28;20047;-48
2024/01/18 05:20:15;;;;;;;9.75;4.90;;;0.30;99.90;;;-0.16;100.00;98877.44;5242354;28;20045;-48
2024/01/18 05:22:47;;;;;;;7.97;3.88;;;0.30;99.90;;;-0.16;100.00;98875.75;5237070;28;20403;-48
2024/01/18 05:25:21;;;;;;;6.68;4.30;;;0.30;99.90;;;-0.16;100.00;98878.31;5233288;28;20056;-48
2024/01/18 05:27:53;;;;;;;8.80;4.57;;;0.30;99.90;;;-0.14;100.00;98870.69;5231696;28;20048;-48
2024/01/18 05:30:30;;;;;;;8.38;5.13;;;0.30;99.90;;;-0.12;100.00;98874.22;5232763;28;20051;-47
2024/01/18 05:33:04;;;;;;;13.18;5.68;;;0.30;99.90;;;-0.10;100.00;98873.47;5242150;28;20068;-47
2024/01/18 05:35:37;;;;;;;8.32;3.75;;;0.30;99.90;;;-0.06;100.00;98879.63;5237071;28;20068;-47
2024/01/18 05:38:12;;;;;;;7.15;3.85;;;0.30;99.90;;;-0.06;100.00;98885.63;5241555;28;20068;-46
2024/01/18 05:40:45;;;;;;;14.50;6.20;;;0.30;99.90;;;-0.04;100.00;98888.25;5237823;28;20233;-46
2024/01/18 05:43:18;;;;;;;11.63;4.18;;;0.40;99.90;;;-0.04;100.00;98898.50;5232772;28;20059;-47
2024/01/18 05:45:51;;;;;;;10.93;5.32;;;0.40;99.90;;;-0.05;100.00;98901.88;5242546;28;20052;-47
2024/01/18 05:48:24;;;;;;;8.63;4.88;;;0.40;99.90;;;-0.06;100.00;98907.81;5238854;28;20110;-46
2024/01/18 05:50:56;;;;;;;7.18;4.28;;;0.30;99.90;;;-0.08;100.00;98911.97;5241566;28;20037;-48
2024/01/18 05:53:29;;;;;;;6.55;4.70;;;0.30;99.90;;;-0.11;100.00;98922.94;5239024;28;20045;-48
2024/01/18 05:56:02;;;;;;;10.60;4.97;;;0.30;99.90;;;-0.10;100.00;98919.56;5231668;28;20090;-46
2024/01/18 05:58:35;;;;;;;7.10;4.18;;;0.30;99.90;;;-0.09;100.00;98920.44;5243043;28;20065;-47
2024/01/18 06:01:09;;;;;;;12.90;5.47;;;0.30;99.90;;;-0.05;100.00;98927.47;5244864;28;20123;-47
2024/01/18 06:03:41;;;;;;;8.48;4.93;;;0.40;99.90;;;-0.02;100.00;98932.72;5244417;28;20099;-46
2024/01/18 06:06:20;;;;;;;10.57;5.18;;;0.40;99.90;;;0.01;100.00;98927.78;5246689;28;20415;-47
2024/01/18 06:08:52;;;;;;;14.98;5.70;;;0.40;99.90;;;0.00;100.00;98936.25;5235303;28;20037;-47
2024/01/18 06:11:25;;;;;;;18.23;4.70;;;0.40;99.90;;;-0.01;100.00;98934.47;5249353;28;20651;-46
2024/01/18 06:13:57;;;;;;;8.77;5.03;;;0.40;99.90;;;-0.01;100.00;98942.16;5243665;28;20098;-47
2024/01/18 06:16:31;;;;;;;11.63;5.15;;;0.40;99.90;;;-0.04;100.00;98942.03;5240959;28;20157;-47
2024/01/18 06:19:04;;;;;;;10.65;6.30;;;0.40;99.90;;;-0.04;100.00;98947.16;5241568;28;20408;-48
2024/01/18 06:21:36;;;;;;;14.95;4.53;;;0.40;99.90;;;-0.04;100.00;98954.84;5243118;28;20064;-47
2024/01/18 06:24:09;;;;;;;7.72;4.25;;;0.40;99.90;;;0.00;100.00;98951.63;5233985;28;20040;-47
2024/01/18 06:26:41;;;;;;;11.63;4.95;;;0.40;99.90;;;0.03;100.00;98951.75;5244109;28;20434;-47
2024/01/18 06:29:16;;;;;;;15.40;5.53;;;0.40;99.90;;;0.03;100.00;98956.88;5236121;28;20523;-47
2024/01/18 06:31:49;;;;;;;14.63;6.18;;;0.40;99.90;;;0.04;100.00;98963.75;5241279;28;20508;-47
2024/01/18 06:34:22;;;;;;;14.48;4.80;;;0.40;99.90;;;0.06;100.00;98972.38;5240697;28;20068;-48
2024/01/18 06:36:54;;;;;;;11.45;4.88;;;0.40;99.90;;;0.08;100.00;98980.16;5241797;28;20052;-48
2024/01/18 06:39:26;;;;;;;10.95;6.00;;;0.50;99.90;;;0.09;100.00;98993.03;5243401;28;20041;-47
2024/01/18 06:41:59;;;;;;;13.20;6.25;;;0.50;99.90;;;0.10;100.00;98991.34;5232720;28;20052;-47
2024/01/18 06:44:31;;;;;;;12.43;7.22;;;0.50;99.90;;;0.11;100.00;99000.78;5228270;28;20503;-47
2024/01/18 06:47:06;;;;;;;12.07;5.80;;;0.50;99.90;;;0.12;100.00;99002.53;5242869;28;20519;-47
2024/01/18 06:49:38;;;;;;;13.52;6.28;;;0.50;99.90;;;0.12;100.00;98982.91;5239690;28;20045;-48
2024/01/18 06:52:11;;;;;;;12.02;6.97;;;0.50;99.90;;;0.13;100.00;98994.97;5230168;28;20037;-47
2024/01/18 06:54:44;;;;;;;11.30;6.00;;;0.50;99.90;;;0.14;100.00;98995.84;5238473;28;20048;-48
2024/01/18 06:57:17;;;;;;;10.85;6.03;;;0.50;99.90;;;0.14;100.00;99000.94;5240925;28;20055;-47
2024/01/18 06:59:51;;;;;;;17.67;5.57;;;0.50;99.90;;;0.14;100.00;99003.53;5226119;28;20052;-47
2024/01/18 07:02:25;;;;;;;14.95;6.65;;;0.50;99.90;;;0.14;100.00;99006.06;5229511;28;20065;-48
2024/01/18 07:04:57;;;;;;;10.32;6.00;;;0.50;99.90;;;0.14;100.00;99006.06;5242128;28;20530;-47
2024/01/18 07:07:29;;;;;;;10.07;6.82;;;0.50;99.90;;;0.15;100.00;99006.16;5228339;28;20439;-46
2024/01/18 07:10:02;;;;;;;14.00;6.03;;;0.50;99.90;;;0.18;100.00;99011.41;5240741;28;20558;-47
2024/01/18 07:12:34;;;;;;;16.35;9.23;;;0.60;99.90;;;0.18;100.00;99013.97;5232394;28;20407;-46
2024/01/18 07:15:08;;;;;;;13.77;5.88;;;0.60;99.90;;;0.20;100.00;99012.38;5231340;28;20057;-46
2024/01/18 07:17:41;;;;;;;8.95;4.97;;;0.50;99.90;;;0.20;100.00;99012.38;5240080;28;20526;-48
2024/01/18 07:20:14;;;;;;;13.98;6.53;;;0.60;99.90;;;0.21;100.00;99009.00;5240351;28;20052;-47
2024/01/18 07:22:46;;;;;;;14.27;6.97;;;0.60;99.90;;;0.21;100.00;99021.81;5240601;28;20041;-48
2024/01/18 07:25:19;;;;;;;17.00;7.85;;;0.60;99.90;;;0.20;100.00;99017.50;5228965;28;20048;-47
2024/01/18 07:27:51;;;;;;;13.90;5.97;;;0.60;99.90;;;0.21;100.00;99023.50;5240318;28;20069;-47
2024/01/18 07:30:27;;;;;;;22.88;8.23;;;0.60;99.90;;;0.22;100.00;99036.38;5229969;28;20135;-48
2024/01/18 07:33:00;;;;;;;13.05;6.40;;;0.60;99.90;;;0.23;100.00;99038.13;5241767;28;20503;-47
2024/01/18 07:35:33;;;;;;;13.82;6.88;;;0.60;99.90;;;0.26;100.00;99028.03;5236799;28;20415;-47
2024/01/18 07:38:05;;;;;;;15.68;7.65;;;0.60;99.90;;;0.26;100.00;99033.16;5240349;28;20056;-48
2024/01/18 07:40:41;;;;;;;13.10;7.95;;;0.60;99.90;;;0.25;100.00;99026.25;5240106;28;20060;-47
2024/01/18 07:43:14;;;;;;;21.20;5.90;;;0.60;99.90;;;0.25;100.00;99041.63;5239065;28;20051;-47
2024/01/18 07:45:46;;;;;;;16.23;6.25;;;0.60;99.90;;;0.23;100.00;99040.69;5227347;28;20041;-49
2024/01/18 07:48:25;;;;;;;11.85;5.40;;;0.60;99.90;;;0.23;100.00;99048.38;5225760;28;20064;-47
2024/01/18 07:50:57;;;;;;;13.50;7.05;;;0.60;99.90;;;0.25;100.00;99053.56;5230719;28;20072;-47
2024/01/18 07:53:29;;;;;;;13.25;6.60;;;0.60;99.90;;;0.24;100.00;99050.13;5237897;28;20044;-46
2024/01/18 07:56:02;;;;;;;11.05;5.13;;;0.70;99.90;;;0.29;100.00;99060.59;5245419;28;20049;-45
2024/01/18 07:58:34;;;;;;;17.90;8.45;;;0.70;99.90;;;0.42;100.00;99050.13;5242832;28;20058;-45
2024/01/18 08:01:07;;;;;;;11.07;5.82;;;0.80;99.90;;;0.87;100.00;99057.31;5243858;28;20113;-45
2024/01/18 08:03:41;;;;;;;20.13;8.15;;;1.10;99.90;;;0.84;100.00;99055.47;5233934;28;20056;-46
2024/01/18 08:06:13;;;;;;;13.27;6.47;;;1.20;99.90;;;0.76;100.00;99073.06;5248868;28;20511;-46
2024/01/18 08:08:45;;;;;;;9.23;6.38;;;1.10;99.90;;;0.68;100.00;99064.16;5235670;28;20072;-47
2024/01/18 08:11:18;;;;;;;15.40;6.90;;;1.10;99.90;;;0.62;100.00;99073.25;5236394;28;20049;-46
2024/01/18 08:13:51;;;;;;;14.55;7.60;;;1.00;99.90;;;0.56;100.00;99073.84;5226641;28;20064;-46
2024/01/18 08:16:24;;;;;;;14.35;7.55;;;1.00;99.90;;;0.55;100.00;99077.22;5233486;28;20051;-47
2024/01/18 08:18:57;;;;;;;15.15;7.32;;;1.00;99.90;;;0.53;100.00;99073.72;5242591;28;20129;-47
2024/01/18 08:21:30;;;;;;;16.80;7.88;;;0.90;99.90;;;0.49;100.00;99082.06;5237724;28;20060;-47
2024/01/18 08:24:02;;;;;;;13.77;8.20;;;0.90;99.90;;;0.47;100.00;99088.81;5237132;28;20045;-46
2024/01/18 08:26:34;;;;;;;11.98;6.00;;;0.90;99.90;;;0.55;100.00;99095.16;5238194;28;20044;-47
2024/01/18 08:29:07;;;;;;;16.33;6.55;;;0.90;99.90;;;0.62;100.00;99098.91;5235370;28;20048;-46
2024/01/18 08:31:39;;;;;;;21.60;7.65;;;1.00;99.90;;;0.60;100.00;99105.66;5228726;28;20516;-46
2024/01/18 08:34:13;;;;;;;15.13;7.05;;;1.00;99.90;;;0.60;100.00;99103.09;5236448;28;20069;-46
2024/01/18 08:36:45;;;;;;;12.63;6.80;;;0.90;99.90;;;0.59;100.00;99102.22;5236964;28;20057;-46
2024/01/18 08:39:18;;;;;;;13.88;5.70;;;0.90;99.90;;;0.61;100.00;99107.41;5230544;28;20045;-46
2024/01/18 08:41:51;;;;;;;15.43;7.65;;;0.90;99.90;;;0.62;100.00;99111.72;5233958;28;20058;-46
2024/01/18 08:44:23;;;;;;;17.40;6.65;;;1.00;99.90;;;0.59;100.00;99109.91;5236834;28;20072;-46
2024/01/18 08:46:56;;;;;;;14.25;7.28;;;1.00;99.90;;;0.60;100.00;99108.22;5210802;28;20401;-46
2024/01/18 08:49:30;;;;;;;14.52;7.05;;;0.90;99.90;;;0.61;100.00;99118.53;5214645;28;20082;-47
2024/01/18 08:52:03;;;;;;;17.10;7.80;;;0.90;99.90;;;0.60;100.00;99132.16;5240897;28;20381;-47
2024/01/18 08:54:38;;;;;;;14.32;6.47;;;0.90;99.90;;;0.57;100.00;99132.00;5233055;28;20131;-47
2024/01/18 08:57:11;;;;;;;20.00;7.40;;;0.90;99.90;;;0.51;100.00;99142.84;5233458;28;20052;-46
2024/01/18 08:59:43;;;;;;;12.85;6.28;;;0.90;99.90;;;0.48;100.00;99152.09;5245961;28;20048;-46
2024/01/18 09:02:17;;;;;;;9.70;6.10;;;0.80;99.90;;;0.45;100.00;99151.91;5235108;28;20418;-46
2024/01/18 09:04:51;;;;;;;14.50;8.43;;;0.80;99.90;;;0.52;100.00;99159.09;5231049;28;20488;-46
2024/01/18 09:07:23;;;;;;;14.02;8.30;;;0.90;99.90;;;0.48;100.00;99162.34;5236503;28;20036;-46
2024/01/18 09:09:56;;;;;;;14.05;6.90;;;0.80;99.90;;;0.40;100.00;99169.66;5227839;28;20516;-45
2024/01/18 09:12:31;;;;;;;13.57;6.13;;;0.80;99.90;;;0.33;100.00;99182.09;5238082;28;20041;-47
2024/01/18 09:15:04;;;;;;;;;;;0.70;99.90;;;0.30;100.00;99193.06;5238639;28;20054;-47
2024/01/18 09:17:36;;;;;;;10.85;6.25;;;0.70;99.90;;;0.35;100.00;99206.13;5229403;28;20433;-46
2024/01/18 09:20:11;;;;;;;10.68;6.22;;;0.70;99.90;;;0.41;100.00;99212.44;5227746;28;20124;-46
2024/01/18 09:22:43;;;;;;;12.60;6.72;;;0.70;99.90;;;0.44;100.00;99214.25;5226693;28;20530;-46
2024/01/18 09:25:15;;;;;;;15.95;6.82;;;0.80;99.90;;;0.47;100.00;99217.84;5231122;28;20040;-47
2024/01/18 09:27:48;;;;;;;13.65;6.75;;;0.80;99.90;;;0.52;100.00;99225.75;5246957;28;20103;-46
2024/01/18 09:30:20;;;;;;;24.17;6.82;;;0.80;99.90;;;0.57;100.00;99226.00;5231558;28;20400;-46
2024/01/18 09:32:56;;;;;;;18.90;7.38;;;0.90;99.90;;;0.67;100.00;99236.78;5231353;28;20435;-47
2024/01/18 09:35:30;;;;;;;11.20;5.32;;;1.00;99.90;;;0.80;100.00;99234.00;5234086;28;20586;-46
2024/01/18 09:38:03;;;;;;;13.35;7.72;;;1.10;99.90;;;0.90;100.00;99237.00;5238955;28;20044;-46
2024/01/18 09:40:35;;;;;;;9.27;5.53;;;1.10;99.90;;;1.02;100.00;99250.44;5232412;28;20053;-46
2024/01/18 09:43:10;;;;;;;12.05;7.18;;;1.20;99.90;;;1.12;100.00;99255.19;5249308;28;20491;-46
2024/01/18 09:45:47;;;;;;;14.98;7.63;;;1.30;99.90;;;1.20;100.00;99251.31;5243006;28;20055;-46
2024/01/18 09:48:20;;;;;;;12.80;7.30;;;1.40;99.90;;;1.34;100.00;99254.50;5236314;28;20045;-46
2024/01/18 09:50:54;;;;;;;17.38;8.23;;;1.50;99.90;;;1.47;100.00;99261.09;5228063;28;20053;-46
2024/01/18 09:53:27;;;;;;;9.10;6.55;;;1.60;99.90;;;1.57;100.00;99273.56;5230579;28;20044;-47
2024/01/18 09:56:07;;;;;;;15.27;7.72;;;1.70;99.90;;;1.66;100.00;99271.41;5250015;28;20098;-48
2024/01/18 09:58:42;;;;;;;11.57;5.38;;;1.80;99.90;;;1.71;100.00;99272.50;5237142;28;20076;-48
2024/01/18 10:01:20;;;;;;;;;;;1.90;99.90;;;1.76;100.00;99278.72;5228120;28;20045;-46
2024/01/18 10:03:53;;;;;;;12.35;6.38;;;1.90;99.90;;;1.80;100.00;99284.88;5232843;28;19964;-46
2024/01/18 10:06:27;;;;;;;13.27;7.55;;;1.90;99.90;;;1.81;100.00;99294.34;5229027;28;20041;-47
2024/01/18 10:09:05;;;;;;;15.23;6.75;;;2.00;99.90;;;1.87;100.00;99302.31;5226304;28;20045;-46
2024/01/18 10:11:37;;;;;;;10.32;7.20;;;2.00;99.90;;;2.01;100.00;99308.09;5229804;28;20139;-46
2024/01/18 10:14:10;;;;;;;13.75;7.15;;;2.20;99.90;;;2.16;100.00;99313.94;5246230;28;20057;-46
2024/01/18 10:16:42;;;;;;;18.60;7.65;;;2.30;99.90;;;2.27;100.00;99317.81;5229591;28;20052;-47
2024/01/18 10:19:15;;;;;;;19.17;9.48;;;2.40;99.90;;;2.38;100.00;99319.19;5235298;28;20041;-47
2024/01/18 10:21:49;;;;;;;16.55;8.10;;;2.50;99.90;;;2.50;100.00;99325.69;5242329;28;20401;-47
2024/01/18 10:24:21;;;;;;;14.77;7.38;;;2.50;99.90;;;2.54;100.00;99328.44;5239036;28;20499;-47
2024/01/18 10:27:04;;;;;;;14.10;8.05;;;2.60;99.90;;;2.60;100.00;99332.97;5250983;28;20052;-46
2024/01/18 10:29:36;;;;;;;18.20;7.20;;;2.70;99.90;;;2.68;100.00;99329.06;5231162;28;20065;-46
2024/01/18 10:32:08;;;;;;;23.85;7.10;;;2.80;99.90;;;2.70;100.00;99335.13;5236382;28;20048;-47
2024/01/18 10:34:45;;;;;;;18.63;9.75;;;2.80;99.90;;;2.73;100.00;99351.56;5249921;28;20059;-48
2024/01/18 10:37:18;;;;;;;14.50;7.40;;;2.90;99.90;;;2.77;100.00;99350.00;5240580;28;20071;-47
2024/01/18 10:39:51;;;;;;;20.15;9.40;;;2.90;99.90;;;2.85;100.00;99356.34;5240594;28;20049;-49
2024/01/18 10:42:24;;;;;;;21.98;9.05;;;3.00;99.90;;;2.94;100.00;99356.75;5240967;28;20055;-49
2024/01/18 10:45:02;;;;;;;15.07;7.90;;;3.10;99.90;;;3.01;100.00;99363.06;5249567;28;20577;-46